createdAt,value
2023-12-11T00:00:55.197Z,99491.13
2023-12-11T00:03:39.918Z,99483.70
2023-12-11T00:06:08.454Z,99486.21
2023-12-11T00:08:37.040Z,99481.16
2023-12-11T00:11:04.827Z,99480.34
2023-12-11T00:13:32.579Z,99479.02
2023-12-11T00:16:00.276Z,99477.19
2023-12-11T00:18:28.664Z,99478.21
2023-12-11T00:20:56.535Z,99476.89
2023-12-11T00:23:24.396Z,99479.80
2023-12-11T00:25:52.085Z,99478.33
2023-12-11T00:28:19.892Z,99476.85
2023-12-11T00:30:47.776Z,99486.08
2023-12-11T00:33:15.619Z,99487.30
2023-12-11T00:35:44.725Z,99475.05
2023-12-11T00:38:12.468Z,99468.87
2023-12-11T00:40:40.220Z,99465.84
2023-12-11T00:43:08.197Z,99464.70
2023-12-11T00:45:36.109Z,99464.91
2023-12-11T00:48:03.993Z,99468.73
2023-12-11T00:50:31.737Z,99467.21
2023-12-11T00:52:59.425Z,99464.35
2023-12-11T00:55:27.159Z,99464.40
2023-12-11T00:57:54.886Z,99457.66
2023-12-11T01:00:22.722Z,99460.02
2023-12-11T01:02:50.346Z,99454.02
2023-12-11T01:05:18.120Z,99453.86
2023-12-11T01:07:45.974Z,99457.89
2023-12-11T01:10:13.684Z,99450.48
2023-12-11T01:12:43.973Z,99453.02
2023-12-11T01:15:12.280Z,99447.00
2023-12-11T01:17:41.126Z,99446.86
2023-12-11T01:20:10.497Z,99451.77
2023-12-11T01:22:38.332Z,99455.13
2023-12-11T01:25:06.567Z,99449.76
2023-12-11T01:27:35.068Z,99447.59
2023-12-11T01:30:03.335Z,99444.11
2023-12-11T01:32:31.189Z,99440.27
2023-12-11T01:34:59.144Z,99434.03
2023-12-11T01:37:27.006Z,99431.20
2023-12-11T01:39:54.811Z,99430.34
2023-12-11T01:42:22.554Z,99425.44
2023-12-11T01:44:50.358Z,99420.43
2023-12-11T01:47:18.597Z,99415.52
2023-12-11T01:49:46.533Z,99414.51
2023-12-11T01:52:15.183Z,99416.16
2023-12-11T01:54:43.193Z,99417.64
2023-12-11T01:57:11.040Z,99417.67
2023-12-11T01:59:39.996Z,99411.46
2023-12-11T02:02:07.845Z,99408.61
2023-12-11T02:04:38.923Z,99406.92
2023-12-11T02:07:06.935Z,99403.06
2023-12-11T02:09:35.187Z,99396.16
2023-12-11T02:12:03.787Z,99391.94
2023-12-11T02:14:31.557Z,99390.09
2023-12-11T02:16:59.704Z,99385.55
2023-12-11T02:19:27.497Z,99378.55
2023-12-11T02:21:55.625Z,99378.92
2023-12-11T02:24:26.758Z,99384.30
2023-12-11T02:26:54.856Z,99382.63
2023-12-11T02:29:22.732Z,99380.74
2023-12-11T02:31:50.570Z,99366.27
2023-12-11T02:34:18.424Z,99364.61
2023-12-11T02:36:46.327Z,99352.02
2023-12-11T02:39:14.068Z,99343.25
2023-12-11T02:41:41.788Z,99335.66
2023-12-11T02:44:09.694Z,99341.17
2023-12-11T02:46:40.339Z,99342.66
2023-12-11T02:49:08.226Z,99339.07
2023-12-11T02:51:36.257Z,99329.77
2023-12-11T02:54:04.101Z,99332.98
2023-12-11T02:56:31.830Z,99330.11
2023-12-11T02:58:59.713Z,99331.46
2023-12-11T03:01:27.553Z,99339.17
2023-12-11T03:03:55.392Z,99343.20
2023-12-11T03:06:23.320Z,99343.88
2023-12-11T03:08:51.276Z,99344.88
2023-12-11T03:11:18.973Z,99353.27
2023-12-11T03:13:46.752Z,99351.58
2023-12-11T03:16:15.203Z,99346.20
2023-12-11T03:18:45.114Z,99340.66
2023-12-11T03:21:13.043Z,99339.30
2023-12-11T03:23:40.781Z,99337.64
2023-12-11T03:26:08.541Z,99332.94
2023-12-11T03:28:36.381Z,99325.73
2023-12-11T03:31:04.386Z,99315.49
2023-12-11T03:33:32.245Z,99309.56
2023-12-11T03:36:00.120Z,99305.02
2023-12-11T03:38:27.923Z,99303.52
2023-12-11T03:40:56.044Z,99303.86
2023-12-11T03:43:24.290Z,99296.77
2023-12-11T03:45:55.872Z,99294.03
2023-12-11T03:48:23.726Z,99289.82
2023-12-11T03:50:51.542Z,99286.73
2023-12-11T03:53:19.262Z,99287.06
2023-12-11T03:55:46.976Z,99287.54
2023-12-11T03:58:14.732Z,99285.48
2023-12-11T04:00:42.588Z,99279.75
2023-12-11T04:03:11.069Z,99273.19
2023-12-11T04:05:38.881Z,99261.56
2023-12-11T04:08:06.724Z,99256.20
2023-12-11T04:10:34.428Z,99246.80
2023-12-11T04:13:03.978Z,99242.59
2023-12-11T04:15:32.331Z,99236.33
2023-12-11T04:18:00.323Z,99239.02
2023-12-11T04:20:28.232Z,99236.29
2023-12-11T04:22:55.930Z,99232.44
2023-12-11T04:25:23.668Z,99228.23
2023-12-11T04:27:51.394Z,99227.37
2023-12-11T04:30:19.196Z,99228.38
2023-12-11T04:32:47.212Z,99232.08
2023-12-11T04:35:17.364Z,99237.30
2023-12-11T04:37:45.042Z,99243.64
2023-12-11T04:40:13.188Z,99248.52
2023-12-11T04:42:41.066Z,99240.11
2023-12-11T04:45:09.458Z,99234.25
2023-12-11T04:47:37.270Z,99235.61
2023-12-11T04:50:05.896Z,99230.59
2023-12-11T04:52:33.666Z,99235.84
2023-12-11T04:55:01.424Z,99244.75
2023-12-11T04:57:29.491Z,99242.41
2023-12-11T04:59:57.302Z,99253.39
2023-12-11T05:02:24.983Z,99251.71
2023-12-11T05:04:52.777Z,99248.20
2023-12-11T05:07:20.629Z,99246.05
2023-12-11T05:09:48.442Z,99252.13
2023-12-11T05:12:17.097Z,99249.13
2023-12-11T05:14:44.983Z,99252.52
2023-12-11T05:17:12.777Z,99243.84
2023-12-11T05:19:40.630Z,99250.63
2023-12-11T05:22:08.712Z,99248.83
2023-12-11T05:24:36.532Z,99249.88
2023-12-11T05:27:04.545Z,99244.35
2023-12-11T05:29:32.248Z,99242.53
2023-12-11T05:32:00.130Z,99243.92
2023-12-11T05:34:27.934Z,99235.05
2023-12-11T05:36:55.925Z,99232.87
2023-12-11T05:39:23.701Z,99234.05
2023-12-11T05:41:51.463Z,99230.02
2023-12-11T05:44:19.573Z,99229.88
2023-12-11T05:46:48.257Z,99226.18
2023-12-11T05:49:16.047Z,99218.40
2023-12-11T05:51:43.853Z,99216.55
2023-12-11T05:54:11.775Z,99218.03
2023-12-11T05:56:39.628Z,99215.96
2023-12-11T05:59:07.449Z,99215.64
2023-12-11T06:01:35.201Z,99213.77
2023-12-11T06:04:05.087Z,99210.23
2023-12-11T06:06:32.889Z,99209.73
2023-12-11T06:09:00.812Z,99205.18
2023-12-11T06:11:28.521Z,99198.77
2023-12-11T06:13:56.442Z,99195.27
2023-12-11T06:16:24.193Z,99195.77
2023-12-11T06:18:52.059Z,99189.04
2023-12-11T06:21:23.020Z,99182.97
2023-12-11T06:23:51.014Z,99191.38
2023-12-11T06:26:45.330Z,99191.36
2023-12-11T06:29:13.434Z,99186.09
2023-12-11T06:31:41.169Z,99183.06
2023-12-11T06:34:08.976Z,99183.27
2023-12-11T06:36:36.881Z,99179.55
2023-12-11T06:39:04.901Z,99176.40
2023-12-11T06:41:32.628Z,99174.72
2023-12-11T06:44:00.323Z,99172.05
2023-12-11T06:46:31.238Z,99174.41
2023-12-11T06:48:59.771Z,99174.92
2023-12-11T06:51:28.475Z,99172.73
2023-12-11T06:54:00.096Z,99173.74
2023-12-11T06:56:32.419Z,99165.17
2023-12-11T06:59:00.669Z,99157.15
2023-12-11T07:01:30.221Z,99159.48
2023-12-11T07:03:58.811Z,99144.02
2023-12-11T07:06:27.108Z,99144.20
2023-12-11T07:08:55.326Z,99139.84
2023-12-11T07:11:23.117Z,99136.30
2023-12-11T07:13:51.461Z,99127.59
2023-12-11T07:16:19.296Z,99128.11
2023-12-11T07:18:47.876Z,99128.63
2023-12-11T07:21:15.757Z,99128.63
2023-12-11T07:23:43.754Z,99122.26
2023-12-11T07:26:11.614Z,99119.23
2023-12-11T07:28:40.261Z,99119.09
2023-12-11T07:31:08.203Z,99120.60
2023-12-11T07:33:36.111Z,99120.95
2023-12-11T07:36:05.930Z,99118.45
2023-12-11T07:38:34.055Z,99121.99
2023-12-11T07:41:03.615Z,99120.13
2023-12-11T07:43:33.119Z,99116.11
2023-12-11T07:46:01.663Z,99115.13
2023-12-11T07:48:30.491Z,99108.39
2023-12-11T07:51:00.727Z,99102.34
2023-12-11T07:53:28.552Z,99099.66
2023-12-11T07:55:56.280Z,99100.52
2023-12-11T07:58:24.080Z,99094.98
2023-12-11T08:00:52.646Z,99093.67
2023-12-11T08:03:20.485Z,99095.89
2023-12-11T08:05:48.775Z,99092.19
2023-12-11T08:08:16.572Z,99080.10
2023-12-11T08:10:44.323Z,99073.23
2023-12-11T08:13:12.141Z,99078.28
2023-12-11T08:15:40.035Z,99076.10
2023-12-11T08:18:07.876Z,99065.53
2023-12-11T08:20:35.729Z,99072.78
2023-12-11T08:23:03.572Z,99067.07
2023-12-11T08:25:31.286Z,99062.70
2023-12-11T08:27:59.148Z,99054.33
2023-12-11T08:30:26.941Z,99050.61
2023-12-11T08:32:54.669Z,99042.39
2023-12-11T08:35:24.689Z,99043.24
2023-12-11T08:37:52.408Z,99040.38
2023-12-11T08:40:21.898Z,99042.10
2023-12-11T08:42:49.705Z,99040.77
2023-12-11T08:45:17.570Z,99047.02
2023-12-11T08:47:45.715Z,99035.94
2023-12-11T08:50:13.663Z,99028.05
2023-12-11T08:52:43.468Z,99021.68
2023-12-11T08:55:11.428Z,99008.05
2023-12-11T08:57:39.315Z,99022.19
2023-12-11T09:00:08.163Z,99017.99
2023-12-11T09:02:36.017Z,99012.80
2023-12-11T09:05:04.632Z,99016.85
2023-12-11T09:07:32.838Z,99014.34
2023-12-11T09:10:00.958Z,99020.08
2023-12-11T09:12:33.338Z,99017.39
2023-12-11T09:15:04.019Z,99010.66
2023-12-11T09:17:33.145Z,99010.15
2023-12-11T09:20:04.662Z,99015.38
2023-12-11T09:22:32.965Z,99014.38
2023-12-11T09:25:00.887Z,99008.67
2023-12-11T09:27:29.215Z,99002.27
2023-12-11T09:29:57.158Z,98991.67
2023-12-11T09:32:26.468Z,98993.20
2023-12-11T09:34:54.433Z,98996.39
2023-12-11T09:37:22.877Z,98996.40
2023-12-11T09:39:50.767Z,98991.67
2023-12-11T09:42:19.373Z,98991.84
2023-12-11T09:44:48.823Z,98991.02
2023-12-11T09:47:30.447Z,98992.37
2023-12-11T09:49:58.978Z,98994.90
2023-12-11T09:52:28.768Z,98960.39
2023-12-11T09:54:56.696Z,98958.89
2023-12-11T09:57:26.678Z,98979.58
2023-12-11T09:59:54.509Z,98978.05
2023-12-11T10:02:27.036Z,98981.91
2023-12-11T10:05:06.487Z,98984.65
2023-12-11T10:07:35.838Z,98969.53
2023-12-11T10:10:33.123Z,98956.10
2023-12-11T10:13:05.369Z,98968.71
2023-12-11T10:15:35.111Z,98969.20
2023-12-11T10:18:13.876Z,98963.15
2023-12-11T10:20:44.069Z,98949.68
2023-12-11T10:23:20.166Z,98950.55
2023-12-11T10:25:50.291Z,98938.80
2023-12-11T10:28:24.725Z,98948.56
2023-12-11T10:31:02.969Z,98951.96
2023-12-11T10:33:35.046Z,98954.00
2023-12-11T10:36:14.925Z,98953.33
2023-12-11T10:38:43.999Z,98939.23
2023-12-11T10:41:27.567Z,98941.11
2023-12-11T10:44:08.019Z,98943.17
2023-12-11T10:46:43.426Z,98942.02
2023-12-11T10:49:11.648Z,98934.98
2023-12-11T10:51:40.346Z,98932.96
2023-12-11T10:54:08.091Z,98934.66
2023-12-11T10:56:36.573Z,98928.45
2023-12-11T10:59:04.330Z,98930.82
2023-12-11T11:01:32.497Z,98923.10
2023-12-11T11:04:00.410Z,98926.96
2023-12-11T11:06:30.575Z,98924.64
2023-12-11T11:09:08.766Z,98910.32
2023-12-11T11:11:42.729Z,98913.71
2023-12-11T11:14:46.704Z,98911.54
2023-12-11T11:17:15.465Z,98907.52
2023-12-11T11:20:14.199Z,98914.27
2023-12-11T11:22:42.230Z,98911.08
2023-12-11T11:25:29.735Z,98907.70
2023-12-11T11:27:58.354Z,98911.92
2023-12-11T11:30:47.484Z,98916.64
2023-12-11T11:33:15.963Z,98903.66
2023-12-11T11:35:47.236Z,98909.06
2023-12-11T11:38:16.830Z,98909.40
2023-12-11T11:40:45.370Z,98903.51
2023-12-11T11:43:16.892Z,98908.74
2023-12-11T11:45:44.950Z,98909.08
2023-12-11T11:48:13.116Z,98906.55
2023-12-11T11:50:55.073Z,98908.07
2023-12-11T11:53:23.445Z,98904.70
2023-12-11T11:55:52.070Z,98909.75
2023-12-11T11:58:20.184Z,98904.52
2023-12-11T12:00:48.097Z,98905.20
2023-12-11T12:03:16.343Z,98907.05
2023-12-11T12:05:56.964Z,98900.14
2023-12-11T12:08:26.134Z,98893.89
2023-12-11T12:10:58.245Z,98890.86
2023-12-11T12:13:28.634Z,98886.81
2023-12-11T12:15:56.640Z,98888.16
2023-12-11T12:18:24.669Z,98890.86
2023-12-11T12:21:05.838Z,98890.19
2023-12-11T12:23:33.785Z,98882.42
2023-12-11T12:26:04.043Z,98887.16
2023-12-11T12:28:32.292Z,98883.77
2023-12-11T12:31:00.301Z,98884.80
2023-12-11T12:33:28.553Z,98881.42
2023-12-11T12:35:56.716Z,98880.23
2023-12-11T12:38:24.743Z,98877.70
2023-12-11T12:40:56.167Z,98875.18
2023-12-11T12:43:25.594Z,98875.84
2023-12-11T12:46:00.687Z,98873.99
2023-12-11T12:48:29.906Z,98872.46
2023-12-11T12:51:12.287Z,98876.52
2023-12-11T12:53:50.571Z,98879.39
2023-12-11T12:56:20.023Z,98880.40
2023-12-11T12:58:51.539Z,98888.50
2023-12-11T13:01:19.358Z,98885.80
2023-12-11T13:03:47.331Z,98893.91
2023-12-11T13:06:26.564Z,98892.71
2023-12-11T13:08:54.432Z,98894.56
2023-12-11T13:11:22.453Z,98897.44
2023-12-11T13:13:57.657Z,98898.61
2023-12-11T13:16:25.669Z,98894.58
2023-12-11T13:18:53.629Z,98892.39
2023-12-11T13:21:21.514Z,98897.45
2023-12-11T13:23:49.262Z,98899.14
2023-12-11T13:26:17.200Z,98899.13
2023-12-11T13:28:44.928Z,98900.99
2023-12-11T13:31:12.813Z,98901.99
2023-12-11T13:33:40.736Z,98904.19
2023-12-11T13:36:09.243Z,98904.86
2023-12-11T13:38:37.049Z,98910.77
2023-12-11T13:41:05.525Z,98907.40
2023-12-11T13:43:33.437Z,98911.10
2023-12-11T13:46:01.268Z,98913.47
2023-12-11T13:48:32.112Z,98911.28
2023-12-11T13:51:01.241Z,98912.13
2023-12-11T13:53:29.165Z,98911.80
2023-12-11T13:55:57.249Z,98911.61
2023-12-11T13:58:25.268Z,98913.64
2023-12-11T14:00:53.305Z,98914.64
2023-12-11T14:03:21.956Z,98908.08
2023-12-11T14:05:50.785Z,98915.33
2023-12-11T14:08:19.076Z,98917.19
2023-12-11T14:10:47.123Z,98914.30
2023-12-11T14:13:15.753Z,98918.69
2023-12-11T14:15:46.822Z,98918.02
2023-12-11T14:18:15.388Z,98918.18
2023-12-11T14:20:43.671Z,98918.85
2023-12-11T14:23:13.732Z,98923.41
2023-12-11T14:25:41.726Z,98916.50
2023-12-11T14:28:10.240Z,98918.35
2023-12-11T14:30:39.224Z,98917.00
2023-12-11T14:33:08.718Z,98919.19
2023-12-11T14:35:37.562Z,98916.83
2023-12-11T14:38:05.801Z,98917.33
2023-12-11T14:40:34.065Z,98921.89
2023-12-11T14:43:03.495Z,98917.50
2023-12-11T14:45:34.049Z,98925.93
2023-12-11T14:48:02.012Z,98920.37
2023-12-11T14:50:29.814Z,98921.02
2023-12-11T14:52:57.516Z,98919.69
2023-12-11T14:55:26.312Z,98921.20
2023-12-11T14:57:54.586Z,98921.70
2023-12-11T15:00:22.959Z,98921.36
2023-12-11T15:02:50.767Z,98924.07
2023-12-11T15:05:18.811Z,98929.80
2023-12-11T15:07:48.128Z,98925.09
2023-12-11T15:10:16.100Z,98926.43
2023-12-11T15:12:43.885Z,98923.39
2023-12-11T15:15:12.375Z,98923.06
2023-12-11T15:17:40.154Z,98921.54
2023-12-11T15:20:11.501Z,98920.20
2023-12-11T15:22:39.649Z,98918.67
2023-12-11T15:25:10.931Z,98921.89
2023-12-11T15:27:38.887Z,98921.89
2023-12-11T15:30:09.314Z,98920.37
2023-12-11T15:32:37.340Z,98920.88
2023-12-11T15:35:06.247Z,98924.77
2023-12-11T15:37:34.359Z,98921.72
2023-12-11T15:40:02.543Z,98923.23
2023-12-11T15:42:30.671Z,98924.42
2023-12-11T15:44:58.776Z,98920.20
2023-12-11T15:47:26.829Z,98922.57
2023-12-11T15:49:54.658Z,98920.55
2023-12-11T15:52:24.720Z,98922.56
2023-12-11T15:54:54.327Z,98922.41
2023-12-11T15:57:22.044Z,98919.36
2023-12-11T15:59:50.195Z,98920.89
2023-12-11T16:02:18.310Z,98920.89
2023-12-11T16:04:46.268Z,98919.37
2023-12-11T16:07:14.365Z,98919.54
2023-12-11T16:09:42.242Z,98919.70
2023-12-11T16:12:10.014Z,98922.23
2023-12-11T16:14:40.019Z,98921.23
2023-12-11T16:17:07.865Z,98926.46
2023-12-11T16:19:52.827Z,98922.40
2023-12-11T16:22:22.079Z,98924.42
2023-12-11T16:24:51.821Z,98922.08
2023-12-11T16:27:20.119Z,98917.35
2023-12-11T16:29:47.850Z,98916.16
2023-12-11T16:32:15.599Z,98917.86
2023-12-11T16:34:43.495Z,98909.75
2023-12-11T16:37:11.522Z,98909.27
2023-12-11T16:39:43.354Z,98902.67
2023-12-11T16:42:11.573Z,98903.52
2023-12-11T16:44:39.593Z,98899.63
2023-12-11T16:47:08.569Z,98898.45
2023-12-11T16:49:44.913Z,98897.95
2023-12-11T16:52:20.652Z,98899.80
2023-12-11T16:54:48.493Z,98897.77
2023-12-11T16:57:16.829Z,98897.27
2023-12-11T16:59:45.549Z,98900.83
2023-12-11T17:02:13.447Z,98898.29
2023-12-11T17:04:41.598Z,98903.68
2023-12-11T17:07:09.466Z,98909.77
2023-12-11T17:09:38.687Z,98902.84
2023-12-11T17:12:06.936Z,98900.48
2023-12-11T17:14:34.730Z,98905.04
2023-12-11T17:17:03.940Z,98905.71
2023-12-11T17:19:31.826Z,98900.65
2023-12-11T17:22:00.063Z,98897.60
2023-12-11T17:24:28.144Z,98893.55
2023-12-11T17:26:55.872Z,98894.74
2023-12-11T17:29:23.586Z,98895.76
2023-12-11T17:31:51.399Z,98891.70
2023-12-11T17:34:19.549Z,98889.18
2023-12-11T17:36:47.382Z,98889.68
2023-12-11T17:39:15.163Z,98893.55
2023-12-11T17:41:43.161Z,98892.04
2023-12-11T17:44:10.962Z,98890.19
2023-12-11T17:46:39.025Z,98889.68
2023-12-11T17:49:06.813Z,98886.81
2023-12-11T17:51:35.072Z,98885.63
2023-12-11T17:54:02.957Z,98884.45
2023-12-11T17:56:30.758Z,98884.79
2023-12-11T17:58:58.603Z,98881.76
2023-12-11T18:01:26.352Z,98879.89
2023-12-11T18:03:54.186Z,98880.73
2023-12-11T18:06:22.028Z,98884.27
2023-12-11T18:08:49.798Z,98881.91
2023-12-11T18:11:17.525Z,98884.28
2023-12-11T18:13:46.053Z,98885.62
2023-12-11T18:16:15.086Z,98887.99
2023-12-11T18:18:43.112Z,98881.75
2023-12-11T18:21:12.026Z,98883.25
2023-12-11T18:23:39.830Z,98876.85
2023-12-11T18:26:11.826Z,98877.69
2023-12-11T18:28:40.026Z,98873.64
2023-12-11T18:31:08.122Z,98874.31
2023-12-11T18:33:36.068Z,98877.53
2023-12-11T18:36:04.338Z,98875.52
2023-12-11T18:38:32.023Z,98872.98
2023-12-11T18:40:59.789Z,98874.49
2023-12-11T18:43:27.526Z,98874.98
2023-12-11T18:45:55.855Z,98876.52
2023-12-11T18:48:25.114Z,98871.30
2023-12-11T18:50:52.984Z,98874.33
2023-12-11T18:53:22.145Z,98871.96
2023-12-11T18:55:59.889Z,98874.85
2023-12-11T18:58:29.387Z,98877.20
2023-12-11T19:00:57.608Z,98871.14
2023-12-11T19:03:25.912Z,98871.96
2023-12-11T19:05:53.773Z,98871.30
2023-12-11T19:08:22.260Z,98870.27
2023-12-11T19:10:50.003Z,98868.94
2023-12-11T19:13:17.878Z,98871.80
2023-12-11T19:15:45.749Z,98874.67
2023-12-11T19:18:16.596Z,98876.36
2023-12-11T19:20:44.664Z,98872.83
2023-12-11T19:23:12.358Z,98869.10
2023-12-11T19:25:40.231Z,98872.98
2023-12-11T19:28:07.919Z,98870.63
2023-12-11T19:30:35.717Z,98869.61
2023-12-11T19:33:06.306Z,98863.70
2023-12-11T19:35:34.749Z,98869.11
2023-12-11T19:38:02.478Z,98867.08
2023-12-11T19:40:30.510Z,98867.41
2023-12-11T19:42:58.334Z,98868.77
2023-12-11T19:45:26.637Z,98866.59
2023-12-11T19:47:54.445Z,98866.23
2023-12-11T19:50:22.494Z,98868.77
2023-12-11T19:52:51.719Z,98864.55
2023-12-11T19:55:20.402Z,98863.70
2023-12-11T19:57:48.347Z,98859.15
2023-12-11T20:00:17.178Z,98865.89
2023-12-11T20:02:46.793Z,98866.74
2023-12-11T20:05:14.662Z,98865.58
2023-12-11T20:07:42.442Z,98865.23
2023-12-11T20:10:12.169Z,98863.88
2023-12-11T20:12:40.115Z,98863.54
2023-12-11T20:15:12.042Z,98865.89
2023-12-11T20:17:40.297Z,98866.06
2023-12-11T20:20:09.693Z,98866.57
2023-12-11T20:22:37.568Z,98865.23
2023-12-11T20:25:05.843Z,98863.54
2023-12-11T20:27:34.884Z,98865.22
2023-12-11T20:30:03.668Z,98863.02
2023-12-11T20:32:33.771Z,98861.34
2023-12-11T20:35:02.555Z,98862.36
2023-12-11T20:37:30.731Z,98862.34
2023-12-11T20:39:58.607Z,98863.53
2023-12-11T20:42:26.481Z,98863.52
2023-12-11T20:44:54.761Z,98869.44
2023-12-11T20:47:22.581Z,98869.61
2023-12-11T20:49:50.296Z,98867.59
2023-12-11T20:52:18.070Z,98866.08
2023-12-11T20:54:45.853Z,98871.28
2023-12-11T20:57:13.710Z,98868.42
2023-12-11T20:59:42.262Z,98870.28
2023-12-11T21:02:10.139Z,98870.45
2023-12-11T21:04:38.014Z,98874.48
2023-12-11T21:07:06.270Z,98874.83
2023-12-11T21:09:34.192Z,98874.50
2023-12-11T21:12:02.080Z,98873.30
2023-12-11T21:14:29.839Z,98878.36
2023-12-11T21:16:57.527Z,98875.68
2023-12-11T21:19:25.420Z,98877.19
2023-12-11T21:21:53.335Z,98871.29
2023-12-11T21:24:21.047Z,98871.11
2023-12-11T21:26:48.877Z,98871.13
2023-12-11T21:29:16.945Z,98875.17
2023-12-11T21:31:44.782Z,98875.67
2023-12-11T21:34:12.612Z,98877.37
2023-12-11T21:36:40.723Z,98878.88
2023-12-11T21:39:08.714Z,98877.87
2023-12-11T21:41:36.547Z,98879.73
2023-12-11T21:44:04.906Z,98879.73
2023-12-11T21:46:32.786Z,98877.71
2023-12-11T21:49:02.555Z,98878.71
2023-12-11T21:51:33.614Z,98881.09
2023-12-11T21:54:02.354Z,98879.05
2023-12-11T21:56:30.907Z,98881.42
2023-12-11T21:58:58.614Z,98882.94
2023-12-11T22:01:32.163Z,98884.63
2023-12-11T22:04:00.720Z,98879.90
2023-12-11T22:06:28.582Z,98882.77
2023-12-11T22:08:56.432Z,98879.73
2023-12-11T22:11:24.370Z,98883.78
2023-12-11T22:13:52.101Z,98883.61
2023-12-11T22:16:19.996Z,98890.69
2023-12-11T22:18:49.044Z,98891.20
2023-12-11T22:21:24.224Z,98894.41
2023-12-11T22:23:53.964Z,98896.60
2023-12-11T22:26:22.770Z,98895.07
2023-12-11T22:28:50.536Z,98895.25
2023-12-11T22:31:30.090Z,98898.46
2023-12-11T22:33:58.052Z,98894.23
2023-12-11T22:36:26.098Z,98894.08
2023-12-11T22:38:53.831Z,98897.11
2023-12-11T22:41:31.064Z,98896.75
2023-12-11T22:43:59.314Z,98895.08
2023-12-11T22:46:28.026Z,98895.59
2023-12-11T22:48:57.612Z,98897.95
2023-12-11T22:51:25.586Z,98888.66
2023-12-11T22:53:53.417Z,98891.87
2023-12-11T22:56:21.210Z,98893.22
2023-12-11T22:58:49.209Z,98895.25
2023-12-11T23:01:17.194Z,98895.08
2023-12-11T23:03:45.551Z,98892.89
2023-12-11T23:06:14.117Z,98889.34
2023-12-11T23:12:37.509Z,98893.23
2023-12-11T23:16:06.747Z,98897.77
2023-12-11T23:19:35.649Z,98901.16
2023-12-11T23:23:04.707Z,98900.98
2023-12-11T23:26:33.598Z,98897.44
2023-12-11T23:30:07.270Z,98902.34
2023-12-11T23:33:27.204Z,98901.66
2023-12-11T23:36:56.337Z,98904.52
2023-12-11T23:40:24.980Z,98909.58
2023-12-11T23:43:53.654Z,98910.27
2023-12-11T23:47:22.399Z,98912.95
2023-12-11T23:50:51.127Z,98916.15
2023-12-11T23:54:19.850Z,98917.52
2023-12-11T23:57:48.766Z,98918.86
